Time;durP1;ratioP1;P1;durP2;ratioP2;P2;SDS_P1;SDS_P2;PMS_P1;PMS_P2;Temp;Humidity;BMP_temperature;BMP_pressure;BME280_temperature;BME280_humidity;BME280_pressure;Samples;Min_cycle;Max_cycle;Signal;HPM_P1;HPM_P2
2023/09/17 00:00:45;;;;;;;7.73;6.90;;;;;;;;;;5014030;28;20478;-76
2023/09/17 00:03:12;;;;;;;6.30;5.47;;;;;;;;;;5014374;28;20479;-76
2023/09/17 00:05:40;;;;;;;6.57;5.20;;;;;;;;;;5013798;28;20447;-76
2023/09/17 00:08:07;;;;;;;7.30;5.47;;;;;;;;;;5014511;28;20450;-76
2023/09/17 00:10:37;;;;;;;9.93;7.23;;;;;;;;;;5014167;28;20497;-76
2023/09/17 00:13:04;;;;;;;8.70;5.20;;;;;;;;;;5014186;28;20435;-76
2023/09/17 00:15:32;;;;;;;7.57;6.77;;;;;;;;;;5019395;28;20442;-76
2023/09/17 00:18:00;;;;;;;7.13;5.90;;;;;;;;;;5033700;28;20471;-76
2023/09/17 00:20:27;;;;;;;6.63;5.30;;;;;;;;;;5033801;28;20442;-76
2023/09/17 00:22:56;;;;;;;7.60;6.87;;;;;;;;;;5033406;28;20478;-76
2023/09/17 00:25:25;;;;;;;6.90;5.10;;;;;;;;;;5033252;28;20438;-76
2023/09/17 00:27:54;;;;;;;6.77;5.77;;;;;;;;;;5033273;28;20446;-76
2023/09/17 00:30:21;;;;;;;10.50;5.40;;;;;;;;;;5032645;28;20544;-76
2023/09/17 00:32:49;;;;;;;6.80;6.10;;;;;;;;;;5033502;28;20924;-76
2023/09/17 00:35:17;;;;;;;7.83;5.40;;;;;;;;;;5033475;28;20434;-76
2023/09/17 00:37:45;;;;;;;6.87;4.93;;;;;;;;;;5032812;28;20438;-76
2023/09/17 00:40:13;;;;;;;8.70;6.50;;;;;;;;;;5033036;28;20515;-76
2023/09/17 00:42:42;;;;;;;6.73;5.53;;;;;;;;;;5033413;28;20437;-76
2023/09/17 00:45:12;;;;;;;7.97;5.70;;;;;;;;;;5033325;28;20443;-76
2023/09/17 00:47:44;;;;;;;7.03;5.00;;;;;;;;;;5033370;28;20770;-76
2023/09/17 00:50:12;;;;;;;5.93;5.10;;;;;;;;;;5033473;28;20862;-76
2023/09/17 00:52:39;;;;;;;6.50;5.10;;;;;;;;;;5032911;28;20476;-76
2023/09/17 00:55:07;;;;;;;7.53;5.67;;;;;;;;;;5033041;28;20430;-76
2023/09/17 00:57:35;;;;;;;7.40;5.37;;;;;;;;;;5033448;28;20839;-76
2023/09/17 01:00:08;;;;;;;10.13;5.00;;;;;;;;;;5032444;28;21049;-76
2023/09/17 01:02:37;;;;;;;6.47;5.20;;;;;;;;;;5033221;28;20426;-76
2023/09/17 01:05:09;;;;;;;6.33;5.00;;;;;;;;;;5033235;28;20446;-76
2023/09/17 01:07:39;;;;;;;6.23;5.50;;;;;;;;;;5016098;28;20888;-76
2023/09/17 01:10:07;;;;;;;6.33;5.00;;;;;;;;;;5012829;28;20478;-76
2023/09/17 01:12:34;;;;;;;5.50;4.90;;;;;;;;;;5013070;28;20524;-76
2023/09/17 01:15:03;;;;;;;7.40;5.87;;;;;;;;;;5013288;28;20527;-76
2023/09/17 01:17:31;;;;;;;7.33;6.17;;;;;;;;;;5012995;28;20431;-76
2023/09/17 01:20:00;;;;;;;6.80;6.10;;;;;;;;;;5013383;28;20446;-76
2023/09/17 01:22:32;;;;;;;6.67;5.20;;;;;;;;;;5029766;28;20441;-76
2023/09/17 01:25:05;;;;;;;8.40;5.67;;;;;;;;;;5033172;28;20811;-75
2023/09/17 01:27:35;;;;;;;6.20;5.57;;;;;;;;;;5032656;28;20456;-76
2023/09/17 01:30:04;;;;;;;7.47;5.40;;;;;;;;;;5032826;28;20473;-76
2023/09/17 01:32:32;;;;;;;5.73;4.93;;;;;;;;;;5032442;28;20446;-76
2023/09/17 01:34:59;;;;;;;7.20;5.67;;;;;;;;;;5030747;28;20469;-76
2023/09/17 01:37:30;;;;;;;7.13;5.00;;;;;;;;;;4993293;28;20435;-76
2023/09/17 01:39:58;;;;;;;5.80;4.40;;;;;;;;;;4994065;28;20424;-76
2023/09/17 01:42:26;;;;;;;5.80;4.83;;;;;;;;;;4993546;28;20448;-75
2023/09/17 01:44:55;;;;;;;4.13;3.60;;;;;;;;;;4993160;28;20435;-76
2023/09/17 01:47:28;;;;;;;9.10;4.40;;;;;;;;;;5005831;28;20442;-76
2023/09/17 01:49:57;;;;;;;5.60;5.00;;;;;;;;;;5012695;28;21028;-76
2023/09/17 01:52:26;;;;;;;5.17;4.23;;;;;;;;;;5012661;28;20441;-76
2023/09/17 01:54:53;;;;;;;5.30;4.47;;;;;;;;;;5013022;28;20465;-76
2023/09/17 01:57:21;;;;;;;5.63;4.30;;;;;;;;;;5012726;28;20443;-76
2023/09/17 01:59:48;;;;;;;6.60;4.67;;;;;;;;;;5012406;28;20837;-76
2023/09/17 02:02:17;;;;;;;6.00;5.40;;;;;;;;;;5015530;28;20435;-76
2023/09/17 02:04:44;;;;;;;6.43;5.50;;;;;;;;;;5016469;28;20537;-76
2023/09/17 02:07:13;;;;;;;5.60;4.87;;;;;;;;;;5015801;28;20944;-76
2023/09/17 02:09:41;;;;;;;9.23;5.37;;;;;;;;;;5016344;28;20437;-76
2023/09/17 02:12:09;;;;;;;10.40;6.97;;;;;;;;;;5021423;28;20449;-76
2023/09/17 02:14:38;;;;;;;6.20;4.80;;;;;;;;;;5035695;28;20441;-75
2023/09/17 02:17:06;;;;;;;5.43;4.40;;;;;;;;;;5036454;28;20529;-76
2023/09/17 02:19:36;;;;;;;7.67;4.87;;;;;;;;;;5035798;28;20446;-76
2023/09/17 02:22:03;;;;;;;5.40;4.90;;;;;;;;;;5035780;28;20442;-76
2023/09/17 02:24:30;;;;;;;11.27;5.97;;;;;;;;;;5035505;28;20847;-76
2023/09/17 02:26:58;;;;;;;7.20;4.80;;;;;;;;;;5035905;28;20523;-76
2023/09/17 02:29:27;;;;;;;5.20;3.67;;;;;;;;;;5035715;28;20430;-76
2023/09/17 02:31:55;;;;;;;5.80;4.67;;;;;;;;;;5023183;28;20505;-76
2023/09/17 02:34:22;;;;;;;6.30;4.70;;;;;;;;;;5015527;28;20439;-76
2023/09/17 02:36:51;;;;;;;7.40;5.23;;;;;;;;;;5016279;28;20434;-76
2023/09/17 02:39:18;;;;;;;9.37;4.93;;;;;;;;;;5016056;28;20492;-76
2023/09/17 02:41:45;;;;;;;5.77;5.00;;;;;;;;;;5015648;28;21020;-76
2023/09/17 02:44:13;;;;;;;7.03;5.17;;;;;;;;;;5015446;28;20474;-76
2023/09/17 02:46:42;;;;;;;7.17;4.37;;;;;;;;;;5015508;28;20522;-76
2023/09/17 02:49:09;;;;;;;8.00;4.60;;;;;;;;;;5015792;28;20530;-76
2023/09/17 02:51:37;;;;;;;8.43;5.13;;;;;;;;;;5015411;28;20467;-76
2023/09/17 02:54:05;;;;;;;7.13;4.70;;;;;;;;;;5015723;28;20557;-76
2023/09/17 02:56:38;;;;;;;6.83;4.80;;;;;;;;;;5015048;28;20447;-76
2023/09/17 02:59:05;;;;;;;5.87;4.90;;;;;;;;;;5014620;28;20833;-76
2023/09/17 03:01:33;;;;;;;6.60;5.50;;;;;;;;;;5015237;28;20910;-76
2023/09/17 03:04:00;;;;;;;5.83;5.00;;;;;;;;;;5015441;28;20808;-76
2023/09/17 03:06:30;;;;;;;6.50;4.97;;;;;;;;;;5015843;28;20442;-76
2023/09/17 03:08:57;;;;;;;9.37;5.77;;;;;;;;;;5015401;28;20436;-76
2023/09/17 03:11:26;;;;;;;9.53;5.10;;;;;;;;;;5014562;28;20521;-76
2023/09/17 03:13:54;;;;;;;5.90;4.07;;;;;;;;;;5014105;28;20796;-76
2023/09/17 03:16:21;;;;;;;5.70;4.33;;;;;;;;;;5014934;28;20492;-75
2023/09/17 03:18:48;;;;;;;6.30;4.30;;;;;;;;;;5014776;28;20948;-76
2023/09/17 03:21:16;;;;;;;6.70;5.80;;;;;;;;;;5015476;28;20501;-76
2023/09/17 03:23:43;;;;;;;6.30;5.30;;;;;;;;;;5014911;28;20443;-76
2023/09/17 03:26:11;;;;;;;8.20;4.77;;;;;;;;;;5015144;28;20843;-76
2023/09/17 03:28:40;;;;;;;8.83;5.17;;;;;;;;;;5014999;28;20470;-76
2023/09/17 03:31:07;;;;;;;7.60;5.00;;;;;;;;;;5014901;28;20813;-76
2023/09/17 03:33:34;;;;;;;5.07;4.23;;;;;;;;;;5014973;28;20450;-76
2023/09/17 03:36:03;;;;;;;5.60;4.50;;;;;;;;;;5014630;28;20438;-76
2023/09/17 03:38:30;;;;;;;4.67;3.90;;;;;;;;;;5014887;28;20446;-75
2023/09/17 03:40:59;;;;;;;6.07;4.80;;;;;;;;;;5014726;28;20443;-76
2023/09/17 03:43:29;;;;;;;5.87;4.57;;;;;;;;;;5014520;28;20442;-76
2023/09/17 03:45:58;;;;;;;7.40;5.33;;;;;;;;;;5014794;28;20477;-76
2023/09/17 03:48:26;;;;;;;7.17;5.03;;;;;;;;;;5014778;28;20423;-76
2023/09/17 03:50:55;;;;;;;5.70;4.50;;;;;;;;;;5014287;28;20545;-76
2023/09/17 03:53:23;;;;;;;5.33;4.53;;;;;;;;;;5014525;28;20439;-76
2023/09/17 03:55:55;;;;;;;4.80;4.30;;;;;;;;;;5014221;28;20523;-76
2023/09/17 03:58:23;;;;;;;6.10;4.27;;;;;;;;;;5014236;28;20473;-76
2023/09/17 04:00:51;;;;;;;5.73;4.63;;;;;;;;;;5012608;28;20568;-76
2023/09/17 04:03:21;;;;;;;8.63;4.33;;;;;;;;;;5014232;28;20447;-76
2023/09/17 04:05:51;;;;;;;6.50;4.60;;;;;;;;;;5014618;28;20427;-76
2023/09/17 04:08:21;;;;;;;6.30;4.70;;;;;;;;;;5014476;28;20442;-76
2023/09/17 04:10:50;;;;;;;5.07;4.40;;;;;;;;;;5014311;28;20848;-75
2023/09/17 04:13:17;;;;;;;4.17;3.70;;;;;;;;;;5014103;28;20477;-76
2023/09/17 04:15:45;;;;;;;7.10;4.60;;;;;;;;;;5013795;28;20435;-76
2023/09/17 04:18:12;;;;;;;5.50;4.20;;;;;;;;;;5014219;28;20559;-77
2023/09/17 04:20:41;;;;;;;7.87;4.57;;;;;;;;;;5014144;28;20437;-76
2023/09/17 04:23:10;;;;;;;5.67;4.13;;;;;;;;;;5014055;28;20509;-76
2023/09/17 04:25:37;;;;;;;6.00;4.17;;;;;;;;;;5013582;28;20494;-76
2023/09/17 04:28:04;;;;;;;5.60;4.40;;;;;;;;;;5031318;28;20442;-76
2023/09/17 04:30:32;;;;;;;6.07;4.07;;;;;;;;;;5033202;28;20438;-76
2023/09/17 04:33:01;;;;;;;7.70;4.10;;;;;;;;;;5033283;28;20434;-76
2023/09/17 04:35:29;;;;;;;4.50;3.63;;;;;;;;;;5033288;28;20480;-76
2023/09/17 04:38:01;;;;;;;5.57;3.67;;;;;;;;;;5033538;28;20455;-76
2023/09/17 04:40:28;;;;;;;5.87;3.77;;;;;;;;;;5033731;28;20434;-76
2023/09/17 04:42:56;;;;;;;5.93;4.60;;;;;;;;;;5012348;28;20804;-76
2023/09/17 04:45:36;;;;;;;4.90;4.37;;;;;;;;;;5013638;28;20447;-76
2023/09/17 04:48:04;;;;;;;6.30;4.40;;;;;;;;;;5014092;28;20517;-76
2023/09/17 04:50:33;;;;;;;5.63;3.83;;;;;;;;;;5013885;28;20529;-76
2023/09/17 04:53:02;;;;;;;5.27;3.80;;;;;;;;;;5013881;28;20446;-76
2023/09/17 04:55:31;;;;;;;7.47;4.43;;;;;;;;;;5013361;28;20481;-76
2023/09/17 04:57:58;;;;;;;4.73;4.20;;;;;;;;;;5013306;28;20488;-76
2023/09/17 05:00:27;;;;;;;5.43;4.10;;;;;;;;;;5013197;28;20466;-76
2023/09/17 05:02:57;;;;;;;4.70;3.77;;;;;;;;;;5013357;28;20530;-76
2023/09/17 05:05:24;;;;;;;5.87;3.90;;;;;;;;;;5013543;28;20426;-76
2023/09/17 05:07:56;;;;;;;7.30;4.90;;;;;;;;;;5013482;28;20443;-75
2023/09/17 05:10:25;;;;;;;4.93;3.80;;;;;;;;;;5013658;28;20485;-76
2023/09/17 05:12:53;;;;;;;7.53;4.10;;;;;;;;;;5013188;28;20973;-76
2023/09/17 05:15:21;;;;;;;10.93;4.57;;;;;;;;;;5013325;28;20439;-76
2023/09/17 05:17:49;;;;;;;5.67;4.77;;;;;;;;;;5013395;28;20884;-76
2023/09/17 05:20:18;;;;;;;6.00;4.67;;;;;;;;;;5013296;28;20930;-76
2023/09/17 05:22:45;;;;;;;6.40;4.67;;;;;;;;;;5013203;28;20478;-76
2023/09/17 05:25:13;;;;;;;6.13;4.60;;;;;;;;;;5013476;28;20529;-76
2023/09/17 05:27:42;;;;;;;7.33;4.97;;;;;;;;;;5013302;28;20439;-76
2023/09/17 05:30:10;;;;;;;7.00;5.23;;;;;;;;;;5013482;28;20494;-76
2023/09/17 05:32:37;;;;;;;7.13;4.97;;;;;;;;;;5013244;28;20865;-76
2023/09/17 05:35:06;;;;;;;9.17;4.20;;;;;;;;;;5013025;28;20446;-76
2023/09/17 05:37:42;;;;;;;8.80;4.27;;;;;;;;;;5016159;28;20526;-76
2023/09/17 05:40:10;;;;;;;5.93;4.00;;;;;;;;;;5016425;28;20897;-76
2023/09/17 05:42:37;;;;;;;5.90;3.80;;;;;;;;;;5016257;28;20498;-76
2023/09/17 05:45:10;;;;;;;8.33;3.67;;;;;;;;;;5016599;28;20442;-76
2023/09/17 05:47:38;;;;;;;6.63;4.40;;;;;;;;;;5016409;28;20427;-76
2023/09/17 05:50:08;;;;;;;5.40;3.70;;;;;;;;;;5016390;28;20509;-76
2023/09/17 05:52:40;;;;;;;6.47;4.00;;;;;;;;;;5016173;28;20506;-76
2023/09/17 05:55:08;;;;;;;6.70;4.40;;;;;;;;;;5016562;28;20483;-76
2023/09/17 05:57:35;;;;;;;5.20;4.60;;;;;;;;;;5016457;28;20439;-76
2023/09/17 06:00:04;;;;;;;6.90;4.77;;;;;;;;;;5015939;28;20517;-76
2023/09/17 06:02:33;;;;;;;8.07;5.00;;;;;;;;;;5016058;28;20546;-76
2023/09/17 06:05:00;;;;;;;5.67;4.80;;;;;;;;;;5016495;28;20497;-76
2023/09/17 06:07:27;;;;;;;5.37;4.10;;;;;;;;;;5016386;28;20462;-76
2023/09/17 06:10:04;;;;;;;4.70;3.63;;;;;;;;;;5015740;28;20951;-76
2023/09/17 06:12:32;;;;;;;7.37;3.70;;;;;;;;;;5016153;28;20466;-76
2023/09/17 06:14:59;;;;;;;4.37;3.40;;;;;;;;;;5015810;28;20466;-76
2023/09/17 06:17:26;;;;;;;5.80;4.00;;;;;;;;;;5016269;28;20439;-77
2023/09/17 06:19:55;;;;;;;4.87;3.80;;;;;;;;;;5015814;28;20478;-76
2023/09/17 06:22:23;;;;;;;5.20;3.33;;;;;;;;;;5015805;28;20439;-76
2023/09/17 06:24:51;;;;;;;4.17;3.70;;;;;;;;;;5015825;28;20443;-76
2023/09/17 06:27:18;;;;;;;4.70;3.50;;;;;;;;;;5016002;28;20435;-76
2023/09/17 06:29:50;;;;;;;5.07;3.73;;;;;;;;;;5001704;28;20591;-76
2023/09/17 06:32:42;;;;;;;5.30;3.80;;;;;;;;;;5017062;28;20467;-76
2023/09/17 06:38:29;;;;;;;;;;;;;;;;;;;;;
2023/09/17 06:41:06;;;;;;;5.20;3.90;;;;;;;;;;5019195;28;20442;-77
2023/09/17 06:46:27;;;;;;;4.57;3.63;;;;;;;;;;5013638;28;20936;-77
2023/09/17 06:48:54;;;;;;;4.73;3.60;;;;;;;;;;5015014;28;20890;-77
2023/09/17 06:51:22;;;;;;;4.80;2.70;;;;;;;;;;5014804;28;20471;-76
2023/09/17 06:53:50;;;;;;;5.53;2.80;;;;;;;;;;5014501;28;20448;-76
2023/09/17 06:56:18;;;;;;;4.97;2.93;;;;;;;;;;5015273;28;20451;-76
2023/09/17 06:58:46;;;;;;;4.20;3.27;;;;;;;;;;5015139;28;20435;-76
2023/09/17 07:01:13;;;;;;;4.70;3.10;;;;;;;;;;5015243;28;20475;-76
2023/09/17 07:03:40;;;;;;;3.60;2.70;;;;;;;;;;5015056;28;20435;-76
2023/09/17 07:06:07;;;;;;;3.80;3.00;;;;;;;;;;5014776;28;20466;-76
2023/09/17 07:08:40;;;;;;;4.60;3.10;;;;;;;;;;5007964;28;20443;-76
2023/09/17 07:11:08;;;;;;;7.23;3.60;;;;;;;;;;5019113;28;20431;-77
2023/09/17 07:13:39;;;;;;;4.97;3.20;;;;;;;;;;5008269;28;20574;-76
2023/09/17 07:16:08;;;;;;;4.37;3.37;;;;;;;;;;5016754;28;20423;-77
2023/09/17 07:18:39;;;;;;;5.40;3.70;;;;;;;;;;5024548;28;20450;-75
2023/09/17 07:21:08;;;;;;;5.33;3.70;;;;;;;;;;5029492;28;20423;-77
2023/09/17 07:24:01;;;;;;;5.47;3.53;;;;;;;;;;5022368;28;20446;-77
2023/09/17 07:26:36;;;;;;;4.97;3.20;;;;;;;;;;5014252;28;20428;-76
2023/09/17 07:29:03;;;;;;;3.90;2.90;;;;;;;;;;5032178;28;20434;-77
2023/09/17 07:31:31;;;;;;;3.90;2.70;;;;;;;;;;5028679;28;20449;-77
2023/09/17 07:34:01;;;;;;;6.30;2.70;;;;;;;;;;5014895;28;20493;-77
2023/09/17 07:36:29;;;;;;;4.40;2.93;;;;;;;;;;5026310;28;20446;-77
2023/09/17 07:38:57;;;;;;;3.67;2.97;;;;;;;;;;5022973;28;21013;-77
2023/09/17 07:41:24;;;;;;;3.93;2.40;;;;;;;;;;5014871;28;20443;-77
2023/09/17 07:43:54;;;;;;;3.80;2.30;;;;;;;;;;5012564;28;20886;-77
2023/09/17 07:46:22;;;;;;;3.63;2.77;;;;;;;;;;5032942;28;20531;-77
2023/09/17 07:48:50;;;;;;;4.93;2.67;;;;;;;;;;5024346;28;20454;-77
2023/09/17 07:51:18;;;;;;;3.70;2.97;;;;;;;;;;5033242;28;20553;-76
2023/09/17 07:53:46;;;;;;;4.33;2.73;;;;;;;;;;5030182;28;20976;-76
2023/09/17 07:56:13;;;;;;;6.03;3.13;;;;;;;;;;5025137;28;21055;-76
2023/09/17 07:58:41;;;;;;;6.00;3.80;;;;;;;;;;5032423;28;20446;-76
2023/09/17 08:01:11;;;;;;;6.20;3.67;;;;;;;;;;5033929;28;20470;-76
2023/09/17 08:03:38;;;;;;;5.97;4.10;;;;;;;;;;5033632;28;20484;-76
2023/09/17 08:06:06;;;;;;;6.07;3.57;;;;;;;;;;5022674;28;20454;-76
2023/09/17 08:08:33;;;;;;;7.70;4.50;;;;;;;;;;5013740;28;20435;-76
2023/09/17 08:11:01;;;;;;;5.73;4.13;;;;;;;;;;5014310;28;20517;-76
2023/09/17 08:13:32;;;;;;;5.63;4.20;;;;;;;;;;5013913;28;20471;-76
2023/09/17 08:15:59;;;;;;;3.67;3.27;;;;;;;;;;5023218;28;20501;-76
2023/09/17 08:18:28;;;;;;;4.90;2.70;;;;;;;;;;5033735;28;20446;-75
2023/09/17 08:20:56;;;;;;;3.60;2.70;;;;;;;;;;5033739;28;20434;-76
2023/09/17 08:23:24;;;;;;;4.93;3.00;;;;;;;;;;5033407;28;20480;-76
2023/09/17 08:26:00;;;;;;;3.70;2.27;;;;;;;;;;5024702;28;20451;-75
2023/09/17 08:28:31;;;;;;;6.10;2.97;;;;;;;;;;5013765;28;20968;-76
2023/09/17 08:30:58;;;;;;;3.83;2.83;;;;;;;;;;5013789;28;20432;-76
2023/09/17 08:33:25;;;;;;;4.10;3.07;;;;;;;;;;5013828;28;20510;-76
2023/09/17 08:35:54;;;;;;;3.70;2.40;;;;;;;;;;5021809;28;20944;-76
2023/09/17 08:38:22;;;;;;;4.83;2.60;;;;;;;;;;5033596;28;20434;-76
2023/09/17 08:40:50;;;;;;;3.57;2.77;;;;;;;;;;5033233;28;20790;-75
2023/09/17 08:43:17;;;;;;;2.83;2.30;;;;;;;;;;5032885;28;20477;-76
2023/09/17 08:45:45;;;;;;;3.80;2.13;;;;;;;;;;5023487;28;20933;-76
2023/09/17 08:48:13;;;;;;;3.23;2.43;;;;;;;;;;5012863;28;20431;-76
2023/09/17 08:50:42;;;;;;;3.40;2.63;;;;;;;;;;5013085;28;20479;-76
2023/09/17 08:53:11;;;;;;;4.50;2.47;;;;;;;;;;5011835;28;20529;-76
2023/09/17 08:55:39;;;;;;;3.93;2.47;;;;;;;;;;5018792;28;20443;-76
2023/09/17 08:58:08;;;;;;;5.43;4.00;;;;;;;;;;5025386;28;20786;-76
2023/09/17 09:00:37;;;;;;;3.70;2.80;;;;;;;;;;5011761;28;20796;-76
2023/09/17 09:03:05;;;;;;;4.10;2.40;;;;;;;;;;5013036;28;20489;-76
2023/09/17 09:05:32;;;;;;;3.40;2.77;;;;;;;;;;5015680;28;21282;-76
2023/09/17 09:08:00;;;;;;;4.23;2.67;;;;;;;;;;5024799;28;20533;-76
2023/09/17 09:10:32;;;;;;;3.60;2.57;;;;;;;;;;5025338;28;20456;-76
2023/09/17 09:13:03;;;;;;;4.47;3.20;;;;;;;;;;5036957;28;20466;-76
2023/09/17 09:15:32;;;;;;;4.70;2.83;;;;;;;;;;5030655;28;20497;-76
2023/09/17 09:18:00;;;;;;;5.30;2.87;;;;;;;;;;5017067;28;20438;-76
2023/09/17 09:20:29;;;;;;;4.33;2.60;;;;;;;;;;5016995;28;20444;-76
2023/09/17 09:22:56;;;;;;;4.00;2.63;;;;;;;;;;5016426;28;20527;-76
2023/09/17 09:25:28;;;;;;;3.53;2.37;;;;;;;;;;5020548;28;20437;-76
2023/09/17 09:28:00;;;;;;;5.03;2.40;;;;;;;;;;5036729;28;20434;-76
2023/09/17 09:30:28;;;;;;;3.70;2.00;;;;;;;;;;5017480;28;20431;-75
2023/09/17 09:33:02;;;;;;;3.47;2.40;;;;;;;;;;5016783;28;20548;-74
2023/09/17 09:35:30;;;;;;;2.70;1.80;;;;;;;;;;5021350;28;20427;-74
2023/09/17 09:37:58;;;;;;;4.80;2.23;;;;;;;;;;5036422;28;20437;-74
2023/09/17 09:40:26;;;;;;;4.00;2.50;;;;;;;;;;5022982;28;20461;-74
2023/09/17 09:42:53;;;;;;;5.17;2.20;;;;;;;;;;5036343;28;20491;-74
2023/09/17 09:45:23;;;;;;;3.27;1.83;;;;;;;;;;5035596;28;20838;-74
2023/09/17 09:47:51;;;;;;;5.90;2.40;;;;;;;;;;5036380;28;20454;-74
2023/09/17 09:50:22;;;;;;;3.83;2.47;;;;;;;;;;5035805;28;20465;-75
2023/09/17 09:52:50;;;;;;;4.57;2.17;;;;;;;;;;5036253;28;20994;-74
2023/09/17 09:55:17;;;;;;;3.20;2.17;;;;;;;;;;5032661;28;20500;-75
2023/09/17 09:57:45;;;;;;;3.13;2.43;;;;;;;;;;5016299;28;20525;-74
2023/09/17 10:00:14;;;;;;;3.00;2.00;;;;;;;;;;5015569;28;20550;-75
2023/09/17 10:02:46;;;;;;;4.23;2.10;;;;;;;;;;5016371;28;20445;-74
2023/09/17 10:05:18;;;;;;;2.60;2.20;;;;;;;;;;5029509;28;20512;-74
2023/09/17 10:07:51;;;;;;;5.53;2.47;;;;;;;;;;5016211;28;20423;-75
2023/09/17 10:10:19;;;;;;;3.27;2.10;;;;;;;;;;5014687;28;20441;-75
2023/09/17 10:12:46;;;;;;;2.60;2.20;;;;;;;;;;5016216;28;20501;-75
2023/09/17 10:15:14;;;;;;;3.80;2.33;;;;;;;;;;4999228;28;20592;-75
2023/09/17 10:17:42;;;;;;;4.03;2.53;;;;;;;;;;5023893;28;20469;-75
2023/09/17 10:20:12;;;;;;;3.13;2.00;;;;;;;;;;5011876;28;20436;-75
2023/09/17 10:22:43;;;;;;;3.37;2.63;;;;;;;;;;5016868;28;20991;-75
2023/09/17 10:25:11;;;;;;;3.73;2.33;;;;;;;;;;5020507;28;20499;-75
2023/09/17 10:27:38;;;;;;;3.30;2.20;;;;;;;;;;5023891;28;20433;-75
2023/09/17 10:30:06;;;;;;;3.00;2.37;;;;;;;;;;5021238;28;20462;-75
2023/09/17 10:32:34;;;;;;;2.97;1.90;;;;;;;;;;5021647;28;20780;-75
2023/09/17 10:35:06;;;;;;;2.80;2.50;;;;;;;;;;5012098;28;20488;-75
2023/09/17 10:37:36;;;;;;;3.27;2.30;;;;;;;;;;5018638;28;20793;-75
2023/09/17 10:40:08;;;;;;;2.60;2.13;;;;;;;;;;5011165;28;20433;-75
2023/09/17 10:42:36;;;;;;;3.73;2.27;;;;;;;;;;5020677;28;21022;-75
2023/09/17 10:45:04;;;;;;;4.43;2.20;;;;;;;;;;5014684;28;20493;-75
2023/09/17 10:47:35;;;;;;;3.13;2.30;;;;;;;;;;5014608;28;20455;-75
2023/09/17 10:50:03;;;;;;;2.40;1.90;;;;;;;;;;5014591;28;20423;-75
2023/09/17 10:52:31;;;;;;;2.80;2.27;;;;;;;;;;5027530;28;20436;-75
2023/09/17 10:55:00;;;;;;;3.50;2.90;;;;;;;;;;5033869;28;20507;-75
2023/09/17 10:57:31;;;;;;;2.50;2.13;;;;;;;;;;5026700;28;20462;-75
2023/09/17 10:59:59;;;;;;;2.93;2.13;;;;;;;;;;5013771;28;20432;-75
2023/09/17 11:02:33;;;;;;;2.80;2.10;;;;;;;;;;5017170;28;20442;-76
2023/09/17 11:05:03;;;;;;;8.93;2.20;;;;;;;;;;5019524;28;20497;-75
2023/09/17 11:07:31;;;;;;;2.53;2.10;;;;;;;;;;5014512;28;20444;-76
2023/09/17 11:10:03;;;;;;;2.90;2.00;;;;;;;;;;5013916;28;20442;-76
2023/09/17 11:12:31;;;;;;;4.80;2.20;;;;;;;;;;5014324;28;20430;-75
2023/09/17 11:15:01;;;;;;;3.87;1.97;;;;;;;;;;5014316;28;20442;-75
2023/09/17 11:17:35;;;;;;;2.50;1.97;;;;;;;;;;5014518;28;20426;-75
2023/09/17 11:20:12;;;;;;;2.97;1.83;;;18.10;96.20;;;;;;5014478;28;20471;-76
2023/09/17 11:22:40;;;;;;;3.47;2.03;;;56.70;10.20;;;;;;5013874;28;20505;-75
2023/09/17 11:25:10;;;;;;;2.70;2.07;;;;;;;;;;5014090;28;20438;-75
2023/09/17 11:27:50;;;;;;;2.90;2.20;;;;;;;;;;5013797;28;20913;-75
2023/09/17 11:30:18;;;;;;;3.07;2.10;;;;;;;;;;5013963;28;20466;-75
2023/09/17 11:32:53;;;;;;;3.10;2.20;;;;;;;;;;5013742;28;20943;-75
2023/09/17 11:35:24;;;;;;;3.83;2.07;;;;;;;;;;5013377;28;20457;-75
2023/09/17 11:37:52;;;;;;;3.77;2.33;;;;;;;;;;5013839;28;20507;-75
2023/09/17 11:40:21;;;;;;;4.27;2.30;;;;;;;;;;5013987;28;20481;-75
2023/09/17 11:42:53;;;;;;;3.33;2.27;;;;;;;;;;5013489;28;20934;-75
2023/09/17 11:45:21;;;;;;;4.10;2.73;;;;;;;;;;5013714;28;20463;-75
2023/09/17 11:47:49;;;;;;;2.30;1.60;;;;;;;;;;5013404;28;20926;-74
2023/09/17 11:50:16;;;;;;;3.27;2.00;;;;;;;;;;5013307;28;20431;-75
2023/09/17 11:52:43;;;;;;;2.83;1.90;;;;;;;;;;5013714;28;20489;-74
2023/09/17 11:55:24;;;;;;;2.87;2.13;;;;;;;;;;5013651;28;20736;-75
2023/09/17 11:57:52;;;;;;;3.17;2.40;;;;;;;;;;5013739;28;20439;-74
2023/09/17 12:00:29;;;;;;;4.93;2.20;;;;;;;;;;5012886;28;20574;-75
2023/09/17 12:02:57;;;;;;;2.90;1.80;;;;;;;;;;5013380;28;20427;-74
2023/09/17 12:05:25;;;;;;;3.90;1.80;;;;;;;;;;5026624;28;20492;-74
2023/09/17 12:07:57;;;;;;;3.90;2.23;;;;;;;;;;5014463;28;20486;-75
2023/09/17 12:10:28;;;;;;;3.87;2.23;;;;;;;;;;4992724;28;20428;-74
2023/09/17 12:12:57;;;;;;;5.50;4.40;;;;;;;;;;4993398;28;20447;-74
2023/09/17 12:15:24;;;;;;;3.20;2.10;;;56.60;9.80;;;;;;4993919;28;20762;-75
2023/09/17 12:17:52;;;;;;;3.33;2.23;;;49.90;11.70;;;;;;5029539;28;20465;-74
2023/09/17 12:20:33;;;;;;;3.67;2.10;;;50.10;12.30;;;;;;5022916;28;20978;-75
2023/09/17 12:23:06;;;;;;;3.50;1.70;;;50.60;12.50;;;;;;5032419;28;21206;-75
2023/09/17 12:25:44;;;;;;;2.77;1.90;;;51.20;12.90;;;;;;5032548;28;20434;-75
2023/09/17 12:28:11;;;;;;;3.60;2.47;;;51.40;11.80;;;;;;5032791;28;20445;-74
2023/09/17 12:30:39;;;;;;;2.80;2.03;;;51.20;11.70;;;;;;5013742;28;20454;-75
2023/09/17 12:33:06;;;;;;;3.20;2.10;;;51.10;11.50;;;;;;5012164;28;20439;-75
2023/09/17 12:35:35;;;;;;;3.13;1.83;;;51.50;11.80;;;;;;5012974;28;20477;-75
2023/09/17 12:38:03;;;;;;;4.60;2.20;;;51.80;11.70;;;;;;5013044;28;20846;-75
2023/09/17 12:40:30;;;;;;;5.20;2.00;;;51.70;11.50;;;;;;5029038;28;20474;-75
2023/09/17 12:42:58;;;;;;;4.63;2.07;;;51.20;11.10;;;;;;5032583;28;20442;-74
2023/09/17 12:45:26;;;;;;;3.57;2.00;;;50.30;12.20;;;;;;5032229;28;20473;-75
2023/09/17 12:47:53;;;;;;;5.13;2.40;;;49.60;13.00;;;;;;5031763;28;20442;-75
2023/09/17 12:50:20;;;;;;;2.73;1.83;;;49.40;13.00;;;;;;5031757;28;20588;-74
2023/09/17 12:52:48;;;;;;;3.03;2.07;;;49.30;13.10;;;;;;5032628;28;20791;-74
2023/09/17 12:55:15;;;;;;;3.30;2.10;;;49.40;13.30;;;;;;5032563;28;20438;-74
2023/09/17 12:57:42;;;;;;;3.77;2.33;;;49.20;13.70;;;;;;5032604;28;20442;-74
2023/09/17 13:00:11;;;;;;;2.90;2.20;;;49.20;13.60;;;;;;5014147;28;20491;-74
2023/09/17 13:02:38;;;;;;;4.97;2.40;;;49.10;13.80;;;;;;5012462;28;20435;-74
2023/09/17 13:05:07;;;;;;;4.10;1.93;;;49.20;13.80;;;;;;5012390;28;20510;-74
2023/09/17 13:07:37;;;;;;;3.63;2.57;;;49.20;14.30;;;;;;5012457;28;20505;-74
2023/09/17 13:10:05;;;;;;;3.40;2.40;;;48.50;14.50;;;;;;5028283;28;20445;-74
2023/09/17 13:12:33;;;;;;;5.13;2.80;;;46.90;15.00;;;;;;5032321;28;20519;-75
2023/09/17 13:15:01;;;;;;;4.50;2.20;;;44.90;16.10;;;;;;5032375;28;20438;-73
2023/09/17 13:17:29;;;;;;;5.00;2.70;;;43.00;17.00;;;;;;5031734;28;20434;-74
2023/09/17 13:19:57;;;;;;;3.80;2.57;;;41.50;18.50;;;;;;5016674;28;20949;-74
2023/09/17 13:22:24;;;;;;;3.40;2.47;;;40.20;20.10;;;;;;5011986;28;20497;-74
2023/09/17 13:24:51;;;;;;;6.13;2.70;;;39.10;21.20;;;;;;5025016;28;20501;-73
2023/09/17 13:27:20;;;;;;;6.57;2.83;;;38.30;23.20;;;;;;5031527;28;21021;-74
2023/09/17 13:29:49;;;;;;;3.00;2.13;;;37.50;23.60;;;;;;5021533;28;21038;-73
2023/09/17 13:32:18;;;;;;;3.50;2.60;;;36.70;25.30;;;;;;5011942;28;20443;-74
2023/09/17 13:34:47;;;;;;;3.70;2.53;;;36.30;25.60;;;;;;5011894;28;20925;-73
2023/09/17 13:37:15;;;;;;;6.47;2.60;;;35.70;26.50;;;;;;5012254;28;20449;-76
2023/09/17 13:39:43;;;;;;;4.47;3.23;;;35.30;27.20;;;;;;5013379;28;20510;-76
2023/09/17 13:42:10;;;;;;;3.57;2.60;;;34.90;27.90;;;;;;5011780;28;20440;-76
2023/09/17 13:44:37;;;;;;;3.70;2.27;;;34.60;28.20;;;;;;5012747;28;20478;-75
2023/09/17 13:47:08;;;;;;;3.70;2.57;;;34.30;28.90;;;;;;5032256;28;20481;-76
2023/09/17 13:49:39;;;;;;;3.40;2.43;;;33.90;29.10;;;;;;5030223;28;20442;-76
2023/09/17 13:52:08;;;;;;;4.07;2.50;;;33.70;28.70;;;;;;5030666;28;20438;-76
2023/09/17 13:54:37;;;;;;;6.63;2.80;;;33.40;29.20;;;;;;5031666;28;20461;-77
2023/09/17 13:57:04;;;;;;;3.67;2.17;;;33.20;29.90;;;;;;5032034;28;20434;-76
2023/09/17 13:59:31;;;;;;;4.27;2.50;;;33.00;30.50;;;;;;5033674;28;20897;-76
2023/09/17 14:01:58;;;;;;;4.20;2.30;;;32.80;30.50;;;;;;5025754;28;20446;-76
2023/09/17 14:04:25;;;;;;;6.17;2.30;;;32.70;30.80;;;;;;5034315;28;20505;-76
2023/09/17 14:06:55;;;;;;;4.63;2.60;;;32.60;31.00;;;;;;5035115;28;20438;-76
2023/09/17 14:09:23;;;;;;;3.30;2.07;;;32.60;31.60;;;;;;5034704;28;20461;-76
2023/09/17 14:11:51;;;;;;;4.07;2.20;;;32.50;31.00;;;;;;5034290;28;20852;-76
2023/09/17 14:14:18;;;;;;;4.43;3.03;;;32.40;31.60;;;;;;5031983;28;20956;-76
2023/09/17 14:16:46;;;;;;;3.97;2.97;;;32.30;31.30;;;;;;5034583;28;20442;-76
2023/09/17 14:19:17;;;;;;;4.57;2.27;;;32.20;31.40;;;;;;5034989;28;20520;-76
2023/09/17 14:21:44;;;;;;;3.40;2.13;;;32.10;31.60;;;;;;5034935;28;20437;-76
2023/09/17 14:24:11;;;;;;;3.07;1.93;;;32.10;31.00;;;;;;5032107;28;20521;-76
2023/09/17 14:26:39;;;;;;;5.77;2.50;;;31.90;31.60;;;;;;5017401;28;21329;-76
2023/09/17 14:29:06;;;;;;;4.40;2.00;;;31.80;31.90;;;;;;5020308;28;21344;-76
2023/09/17 14:31:33;;;;;;;5.30;2.63;;;31.60;32.30;;;;;;5034288;28;20434;-76
2023/09/17 14:34:01;;;;;;;7.20;2.13;;;31.50;33.70;;;;;;5029592;28;20812;-76
2023/09/17 14:36:27;;;;;;;3.27;2.23;;;31.40;33.00;;;;;;5033321;28;20478;-76